createdAt,value
2023-04-07T00:00:22.205Z,94111.00
2023-04-07T00:02:49.078Z,94108.00
2023-04-07T00:05:16.502Z,94110.00
2023-04-07T00:07:55.906Z,94105.00
2023-04-07T00:10:25.801Z,94108.00
2023-04-07T00:12:59.884Z,94108.00
2023-04-07T00:15:26.833Z,94105.00
2023-04-07T00:17:53.814Z,94098.00
2023-04-07T00:20:20.828Z,94098.00
2023-04-07T00:22:48.006Z,94083.00
2023-04-07T00:25:15.497Z,94088.00
2023-04-07T00:27:44.509Z,94084.00
2023-04-07T00:30:15.333Z,94074.00
2023-04-07T00:32:45.519Z,94066.00
2023-04-07T00:35:12.669Z,94069.00
2023-04-07T00:37:39.561Z,94061.00
2023-04-07T00:40:07.407Z,94054.00
2023-04-07T00:42:39.745Z,94056.00
2023-04-07T00:45:07.524Z,94050.00
2023-04-07T00:47:34.455Z,94043.00
2023-04-07T00:50:08.461Z,94041.00
2023-04-07T00:52:38.580Z,94036.00
2023-04-07T00:55:06.187Z,94042.00
2023-04-07T00:57:37.770Z,94031.00
2023-04-07T01:00:07.921Z,94031.00
2023-04-07T01:02:50.657Z,94027.00
2023-04-07T01:05:49.317Z,94025.00
2023-04-07T01:08:26.694Z,94024.00
2023-04-07T01:11:08.760Z,94032.00
2023-04-07T01:13:51.933Z,94028.00
2023-04-07T01:16:43.967Z,94027.00
2023-04-07T01:19:53.887Z,94022.00
2023-04-07T01:22:41.954Z,94017.00
2023-04-07T01:26:11.874Z,94010.00
2023-04-07T01:29:36.095Z,94014.00
2023-04-07T01:32:08.365Z,94013.00
2023-04-07T01:34:39.558Z,94002.00
2023-04-07T01:37:09.907Z,94011.00
2023-04-07T01:39:40.995Z,94010.00
2023-04-07T01:42:08.489Z,94009.00
2023-04-07T01:44:39.009Z,94003.00
2023-04-07T01:47:06.853Z,94004.00
2023-04-07T01:49:35.851Z,94001.00
2023-04-07T01:52:06.105Z,93998.00
2023-04-07T01:54:34.384Z,93984.00
2023-04-07T01:57:06.294Z,93992.00
2023-04-07T01:59:36.121Z,93992.00
2023-04-07T02:02:03.352Z,93990.00
2023-04-07T02:04:44.275Z,93980.00
2023-04-07T02:07:46.731Z,93987.00
2023-04-07T02:10:23.766Z,93976.00
2023-04-07T02:12:51.736Z,93979.00
2023-04-07T02:15:21.737Z,93967.00
2023-04-07T02:17:56.114Z,93971.00
2023-04-07T02:20:25.925Z,93980.00
2023-04-07T02:22:53.842Z,93970.00
2023-04-07T02:25:28.518Z,93969.00
2023-04-07T02:28:02.498Z,93967.00
2023-04-07T02:30:29.878Z,93964.00
2023-04-07T02:32:59.291Z,93959.00
2023-04-07T02:35:28.504Z,93950.00
2023-04-07T02:37:57.723Z,93960.00
2023-04-07T02:40:27.042Z,93956.00
2023-04-07T02:42:56.740Z,93960.00
2023-04-07T02:45:23.780Z,93947.00
2023-04-07T02:47:53.437Z,93957.00
2023-04-07T02:50:22.651Z,93954.00
2023-04-07T02:52:49.554Z,93954.00
2023-04-07T02:55:18.399Z,93960.00
2023-04-07T02:57:45.409Z,93959.00
2023-04-07T03:00:13.138Z,93950.00
2023-04-07T03:02:40.416Z,93949.00
2023-04-07T03:05:10.780Z,93945.00
2023-04-07T03:07:37.697Z,93932.00
2023-04-07T03:10:07.157Z,93936.00
2023-04-07T03:12:36.468Z,93933.00
2023-04-07T03:15:06.457Z,93930.00
2023-04-07T03:17:34.239Z,93934.00
2023-04-07T03:20:05.729Z,93923.00
2023-04-07T03:22:35.279Z,93919.00
2023-04-07T03:25:04.710Z,93915.00
2023-04-07T03:27:34.089Z,93903.00
2023-04-07T03:30:01.011Z,93905.00
2023-04-07T03:32:30.916Z,93904.00
2023-04-07T03:35:02.762Z,93906.00
2023-04-07T03:37:31.965Z,93906.00
2023-04-07T03:39:58.789Z,93906.00
2023-04-07T03:42:30.247Z,93900.00
2023-04-07T03:44:59.390Z,93903.00
2023-04-07T03:47:26.335Z,93911.00
2023-04-07T03:49:53.215Z,93894.00
2023-04-07T03:52:20.092Z,93900.00
2023-04-07T03:54:46.972Z,93902.00
2023-04-07T03:57:16.545Z,93900.00
2023-04-07T03:59:47.473Z,93896.00
2023-04-07T04:02:22.235Z,93894.00
2023-04-07T04:04:51.830Z,93891.00
2023-04-07T04:07:23.540Z,93886.00
2023-04-07T04:09:50.358Z,93886.00
2023-04-07T04:12:22.478Z,93875.00
2023-04-07T04:14:51.660Z,93875.00
2023-04-07T04:17:18.595Z,93885.00
2023-04-07T04:19:47.889Z,93872.00
2023-04-07T04:22:14.851Z,93878.00
2023-04-07T04:24:46.352Z,93882.00
2023-04-07T04:27:15.954Z,93879.00
2023-04-07T04:29:42.803Z,93887.00
2023-04-07T04:32:12.000Z,93885.00
2023-04-07T04:34:46.688Z,93871.00
2023-04-07T04:37:18.435Z,93871.00
2023-04-07T04:39:45.326Z,93869.00
2023-04-07T04:42:12.302Z,93869.00
2023-04-07T04:44:39.171Z,93859.00
2023-04-07T04:47:08.651Z,93862.00
2023-04-07T04:49:36.130Z,93861.00
2023-04-07T04:52:05.290Z,93861.00
2023-04-07T04:54:34.279Z,93874.00
2023-04-07T04:57:01.657Z,93864.00
2023-04-07T04:59:31.500Z,93870.00
2023-04-07T05:02:03.287Z,93868.00
2023-04-07T05:04:33.086Z,93877.00
2023-04-07T05:07:00.525Z,93865.00
2023-04-07T05:09:27.532Z,93878.00
2023-04-07T05:11:54.411Z,93874.00
2023-04-07T05:14:21.380Z,93867.00
2023-04-07T05:16:54.264Z,93872.00
2023-04-07T05:19:21.230Z,93861.00
2023-04-07T05:21:48.192Z,93858.00
2023-04-07T05:24:17.306Z,93855.00
2023-04-07T05:26:49.152Z,93854.00
2023-04-07T05:29:23.157Z,93859.00
2023-04-07T05:31:50.110Z,93854.00
2023-04-07T05:34:19.440Z,93856.00
2023-04-07T05:36:49.269Z,93858.00
2023-04-07T05:39:16.362Z,93864.00
2023-04-07T05:41:43.309Z,93866.00
2023-04-07T05:44:15.526Z,93865.00
2023-04-07T05:46:44.603Z,93877.00
2023-04-07T05:49:20.003Z,93865.00
2023-04-07T05:51:50.300Z,93859.00
2023-04-07T05:54:17.314Z,93860.00
2023-04-07T05:56:46.671Z,93861.00
2023-04-07T05:59:13.749Z,93867.00
2023-04-07T06:01:41.188Z,93877.00
2023-04-07T06:04:10.715Z,93863.00
2023-04-07T06:06:40.162Z,93868.00
2023-04-07T06:09:10.330Z,93869.00
2023-04-07T06:11:41.799Z,93867.00
2023-04-07T06:14:09.755Z,93863.00
2023-04-07T06:16:36.711Z,93868.00
2023-04-07T06:19:03.706Z,93869.00
2023-04-07T06:21:35.585Z,93868.00
2023-04-07T06:24:07.084Z,93863.00
2023-04-07T06:26:37.177Z,93857.00
2023-04-07T06:29:04.047Z,93862.00
2023-04-07T06:31:31.476Z,93865.00
2023-04-07T06:34:02.841Z,93862.00
2023-04-07T06:36:33.836Z,93851.00
2023-04-07T06:39:03.323Z,93855.00
2023-04-07T06:41:30.285Z,93855.00
2023-04-07T06:43:57.344Z,93861.00
2023-04-07T06:46:26.574Z,93860.00
2023-04-07T06:48:56.465Z,93858.00
2023-04-07T06:51:23.353Z,93863.00
2023-04-07T06:53:54.897Z,93864.00
2023-04-07T06:56:23.145Z,93867.00
2023-04-07T06:58:51.084Z,93866.00
2023-04-07T07:01:18.033Z,93872.00
2023-04-07T07:03:47.552Z,93864.00
2023-04-07T07:06:14.671Z,93866.00
2023-04-07T07:08:43.908Z,93851.00
2023-04-07T07:11:12.878Z,93851.00
2023-04-07T07:13:45.466Z,93857.00
2023-04-07T07:16:17.106Z,93857.00
2023-04-07T07:18:49.025Z,93846.00
2023-04-07T07:21:16.186Z,93853.00
2023-04-07T07:23:48.038Z,93848.00
2023-04-07T07:26:15.448Z,93854.00
2023-04-07T07:28:44.610Z,93842.00
2023-04-07T07:31:15.830Z,93849.00
2023-04-07T07:33:44.266Z,93848.00
2023-04-07T07:36:11.600Z,93846.00
2023-04-07T07:38:40.524Z,93857.00
2023-04-07T07:41:07.895Z,93855.00
2023-04-07T07:43:35.329Z,93853.00
2023-04-07T07:46:06.845Z,93860.00
2023-04-07T07:48:33.703Z,93858.00
2023-04-07T07:51:00.937Z,93858.00
2023-04-07T07:53:34.938Z,93851.00
2023-04-07T07:56:01.954Z,93855.00
2023-04-07T07:58:31.586Z,93844.00
2023-04-07T08:00:58.460Z,93843.00
2023-04-07T08:03:27.536Z,93842.00
2023-04-07T08:05:59.646Z,93825.00
2023-04-07T08:08:28.869Z,93847.00
2023-04-07T08:10:55.867Z,93844.00
2023-04-07T08:13:27.226Z,93848.00
2023-04-07T08:15:54.236Z,93836.00
2023-04-07T08:18:21.127Z,93840.00
2023-04-07T08:20:52.756Z,93833.00
2023-04-07T08:23:29.184Z,93843.00
2023-04-07T08:25:58.143Z,93841.00
2023-04-07T08:28:29.115Z,93842.00
2023-04-07T08:30:56.111Z,93839.00
2023-04-07T08:33:26.446Z,93848.00
2023-04-07T08:35:53.492Z,93837.00
2023-04-07T08:38:22.767Z,93842.00
2023-04-07T08:41:04.072Z,93841.00
2023-04-07T08:43:31.414Z,93832.00
2023-04-07T08:46:01.156Z,93846.00
2023-04-07T08:48:34.271Z,93836.00
2023-04-07T08:51:10.308Z,93842.00
2023-04-07T08:53:50.736Z,93840.00
2023-04-07T08:56:19.206Z,93831.00
2023-04-07T08:58:50.769Z,93838.00
2023-04-07T09:01:18.355Z,93840.00
2023-04-07T09:03:46.364Z,93845.00
2023-04-07T09:06:17.326Z,93846.00
2023-04-07T09:08:46.701Z,93846.00
2023-04-07T09:11:15.639Z,93858.00
2023-04-07T09:13:42.906Z,93851.00
2023-04-07T09:16:10.024Z,93852.00
2023-04-07T09:18:39.561Z,93853.00
2023-04-07T09:21:09.026Z,93836.00
2023-04-07T09:23:43.101Z,93852.00
2023-04-07T09:26:23.079Z,93857.00
2023-04-07T09:28:59.503Z,93856.00
2023-04-07T09:31:51.913Z,93852.00
2023-04-07T09:34:41.188Z,93852.00
2023-04-07T09:37:09.578Z,93850.00
2023-04-07T09:39:59.590Z,93852.00
2023-04-07T09:42:26.922Z,93843.00
2023-04-07T09:45:00.885Z,93852.00
2023-04-07T09:47:34.940Z,93850.00
2023-04-07T09:50:06.922Z,93851.00
2023-04-07T09:52:55.176Z,93845.00
2023-04-07T09:55:23.696Z,93848.00
2023-04-07T09:57:51.658Z,93851.00
2023-04-07T10:00:19.232Z,93838.00
2023-04-07T10:02:46.732Z,93851.00
2023-04-07T10:05:14.092Z,93840.00
2023-04-07T10:07:43.757Z,93846.00
2023-04-07T10:10:13.432Z,93843.00
2023-04-07T10:12:43.881Z,93853.00
2023-04-07T10:15:16.697Z,93850.00
2023-04-07T10:17:48.604Z,93848.00
2023-04-07T10:20:21.727Z,93845.00
2023-04-07T10:22:54.009Z,93855.00
2023-04-07T10:25:28.095Z,93848.00
2023-04-07T10:27:59.000Z,93856.00
2023-04-07T10:30:33.817Z,93848.00
2023-04-07T10:33:03.505Z,93848.00
2023-04-07T10:36:10.198Z,93855.00
2023-04-07T10:38:37.162Z,93853.00
2023-04-07T10:41:37.101Z,93860.00
2023-04-07T10:44:12.021Z,93854.00
2023-04-07T10:46:52.136Z,93860.00
2023-04-07T10:49:21.533Z,93861.00
2023-04-07T10:52:27.208Z,93867.00
2023-04-07T10:55:30.229Z,93874.00
2023-04-07T10:58:17.035Z,93871.00
2023-04-07T11:01:04.297Z,93874.00
2023-04-07T11:03:40.812Z,93874.00
2023-04-07T11:06:16.275Z,93875.00
2023-04-07T11:08:49.505Z,93874.00
2023-04-07T11:11:22.374Z,93876.00
2023-04-07T11:13:51.351Z,93883.00
2023-04-07T11:16:22.520Z,93877.00
2023-04-07T11:19:00.020Z,93877.00
2023-04-07T11:21:26.959Z,93885.00
2023-04-07T11:23:56.008Z,93887.00
2023-04-07T11:26:27.631Z,93890.00
2023-04-07T11:28:59.434Z,93891.00
2023-04-07T11:31:33.126Z,93889.00
2023-04-07T11:34:05.350Z,93898.00
2023-04-07T11:36:39.594Z,93891.00
2023-04-07T11:39:18.559Z,93870.00
2023-04-07T11:41:52.959Z,93905.00
2023-04-07T11:44:20.525Z,93894.00
2023-04-07T11:47:01.134Z,93904.00
2023-04-07T11:49:29.166Z,93901.00
2023-04-07T11:52:08.101Z,93914.00
2023-04-07T11:54:47.149Z,93916.00
2023-04-07T11:57:29.562Z,93919.00
2023-04-07T12:00:15.719Z,93916.00
2023-04-07T12:02:42.889Z,93921.00
2023-04-07T12:05:10.688Z,93920.00
2023-04-07T12:07:43.427Z,93916.00
2023-04-07T12:10:26.333Z,93922.00
2023-04-07T12:12:53.472Z,93916.00
2023-04-07T12:15:24.954Z,93925.00
2023-04-07T12:17:55.446Z,93929.00
2023-04-07T12:20:22.435Z,93943.00
2023-04-07T12:22:51.597Z,93943.00
2023-04-07T12:25:21.602Z,93948.00
2023-04-07T12:27:51.151Z,93947.00
2023-04-07T12:30:18.169Z,93942.00
2023-04-07T12:32:47.619Z,93958.00
2023-04-07T12:35:16.809Z,93955.00
2023-04-07T12:37:43.740Z,93960.00
2023-04-07T12:40:15.942Z,93967.00
2023-04-07T12:42:42.884Z,93958.00
2023-04-07T12:45:10.367Z,93963.00
2023-04-07T12:47:37.417Z,93963.00
2023-04-07T12:50:04.804Z,93955.00
2023-04-07T12:52:34.260Z,93958.00
2023-04-07T12:55:01.107Z,93963.00
2023-04-07T12:57:28.799Z,93968.00
2023-04-07T12:59:55.729Z,93967.00
2023-04-07T13:02:23.000Z,93964.00
2023-04-07T13:04:50.043Z,93952.00
2023-04-07T13:07:17.043Z,93973.00
2023-04-07T13:09:43.929Z,93975.00
2023-04-07T13:12:11.925Z,93977.00
2023-04-07T13:14:52.851Z,93981.00
2023-04-07T13:17:22.835Z,93982.00
2023-04-07T13:19:50.613Z,93965.00
2023-04-07T13:22:21.507Z,93979.00
2023-04-07T13:24:48.890Z,93985.00
2023-04-07T13:27:16.158Z,93976.00
2023-04-07T13:29:43.045Z,93986.00
2023-04-07T13:32:13.416Z,93984.00
2023-04-07T13:34:45.398Z,93989.00
2023-04-07T13:37:12.359Z,93992.00
2023-04-07T13:39:41.790Z,93988.00
2023-04-07T13:42:11.452Z,93987.00
2023-04-07T13:44:40.172Z,93985.00
2023-04-07T13:47:07.520Z,93981.00
2023-04-07T13:49:34.723Z,93979.00
2023-04-07T13:52:04.611Z,93981.00
2023-04-07T13:54:31.541Z,93981.00
2023-04-07T13:56:58.502Z,93982.00
2023-04-07T13:59:27.564Z,93967.00
2023-04-07T14:01:57.358Z,93975.00
2023-04-07T14:04:27.355Z,93966.00
2023-04-07T14:06:59.365Z,93964.00
2023-04-07T14:09:26.465Z,93971.00
2023-04-07T14:11:53.318Z,93974.00
2023-04-07T14:14:20.155Z,93972.00
2023-04-07T14:16:47.227Z,93983.00
2023-04-07T14:19:14.150Z,93989.00
2023-04-07T14:21:43.240Z,93985.00
2023-04-07T14:24:12.697Z,93995.00
2023-04-07T14:26:39.564Z,93999.00
2023-04-07T14:29:06.511Z,94000.00
2023-04-07T14:31:33.401Z,94006.00
2023-04-07T14:34:03.289Z,93998.00
2023-04-07T14:36:31.480Z,94000.00
2023-04-07T14:38:58.457Z,94003.00
2023-04-07T14:41:30.432Z,94003.00
2023-04-07T14:43:57.533Z,94003.00
2023-04-07T14:46:25.282Z,94001.00
2023-04-07T14:48:57.448Z,94004.00
2023-04-07T14:51:24.700Z,94000.00
2023-04-07T14:53:55.634Z,94001.00
2023-04-07T14:56:22.813Z,93998.00
2023-04-07T14:58:55.033Z,93993.00
2023-04-07T15:01:22.026Z,93994.00
2023-04-07T15:03:53.048Z,93991.00
2023-04-07T15:06:20.467Z,93989.00
2023-04-07T15:08:49.589Z,93998.00
2023-04-07T15:11:16.478Z,93990.00
2023-04-07T15:13:43.318Z,93997.00
2023-04-07T15:16:17.724Z,93992.00
2023-04-07T15:18:48.627Z,94002.00
2023-04-07T15:21:20.258Z,93998.00
2023-04-07T15:23:47.430Z,94000.00
2023-04-07T15:26:17.028Z,94009.00
2023-04-07T15:28:48.538Z,94009.00
2023-04-07T15:31:15.625Z,94008.00
2023-04-07T15:33:46.200Z,94014.00
2023-04-07T15:36:13.182Z,94016.00
2023-04-07T15:38:42.626Z,94016.00
2023-04-07T15:41:14.411Z,94022.00
2023-04-07T15:43:41.409Z,94022.00
2023-04-07T15:46:08.352Z,94024.00
2023-04-07T15:48:35.286Z,94024.00
2023-04-07T15:51:02.275Z,94016.00
2023-04-07T15:53:30.481Z,94028.00
2023-04-07T15:55:57.484Z,94036.00
2023-04-07T15:58:24.513Z,94030.00
2023-04-07T16:00:51.626Z,94038.00
2023-04-07T16:03:18.809Z,94026.00
2023-04-07T16:05:45.862Z,94041.00
2023-04-07T16:08:13.945Z,94033.00
2023-04-07T16:10:41.761Z,94044.00
2023-04-07T16:13:09.305Z,94036.00
2023-04-07T16:15:41.165Z,94040.00
2023-04-07T16:18:14.470Z,94042.00
2023-04-07T16:20:41.321Z,94042.00
2023-04-07T16:23:08.840Z,94025.00
2023-04-07T16:25:35.872Z,94036.00
2023-04-07T16:28:02.967Z,94044.00
2023-04-07T16:30:29.939Z,94042.00
2023-04-07T16:32:56.944Z,94047.00
2023-04-07T16:35:24.321Z,94043.00
2023-04-07T16:37:52.166Z,94040.00
2023-04-07T16:40:21.355Z,94052.00
2023-04-07T16:42:52.947Z,94053.00
2023-04-07T16:45:19.852Z,94052.00
2023-04-07T16:47:49.203Z,94056.00
2023-04-07T16:50:16.273Z,94052.00
2023-04-07T16:52:43.168Z,94058.00
2023-04-07T16:55:10.727Z,94061.00
2023-04-07T16:57:42.095Z,94064.00
2023-04-07T17:00:09.784Z,94060.00
2023-04-07T17:02:39.258Z,94066.00
2023-04-07T17:05:09.447Z,94063.00
2023-04-07T17:07:36.611Z,94061.00
2023-04-07T17:10:06.223Z,94058.00
2023-04-07T17:12:33.164Z,94062.00
2023-04-07T17:15:00.089Z,94059.00
2023-04-07T17:17:29.561Z,94080.00
2023-04-07T17:19:57.602Z,94068.00
2023-04-07T17:22:26.923Z,94076.00
2023-04-07T17:24:53.783Z,94071.00
2023-04-07T17:27:20.839Z,94071.00
2023-04-07T17:29:47.670Z,94084.00
2023-04-07T17:32:14.596Z,94088.00
2023-04-07T17:34:41.598Z,94085.00
2023-04-07T17:37:10.985Z,94092.00
2023-04-07T17:39:37.777Z,94082.00
2023-04-07T17:42:10.866Z,94089.00
2023-04-07T17:44:37.754Z,94095.00
2023-04-07T17:47:06.883Z,94096.00
2023-04-07T17:49:35.825Z,94104.00
2023-04-07T17:52:02.922Z,94108.00
2023-04-07T17:54:34.645Z,94117.00
2023-04-07T17:57:03.413Z,94108.00
2023-04-07T17:59:30.307Z,94115.00
2023-04-07T18:01:59.594Z,94115.00
2023-04-07T18:04:26.696Z,94116.00
2023-04-07T18:06:55.755Z,94099.00
2023-04-07T18:09:24.730Z,94128.00
2023-04-07T18:11:52.817Z,94129.00
2023-04-07T18:14:19.678Z,94143.00
2023-04-07T18:16:49.120Z,94138.00
2023-04-07T18:19:18.963Z,94137.00
2023-04-07T18:21:45.953Z,94142.00
2023-04-07T18:24:17.778Z,94146.00
2023-04-07T18:26:47.214Z,94145.00
2023-04-07T18:29:14.848Z,94154.00
2023-04-07T18:31:44.496Z,94150.00
2023-04-07T18:34:12.297Z,94155.00
2023-04-07T18:36:42.918Z,94150.00
2023-04-07T18:39:10.326Z,94155.00
2023-04-07T18:41:37.330Z,94162.00
2023-04-07T18:44:04.556Z,94167.00
2023-04-07T18:46:31.599Z,94166.00
2023-04-07T18:49:00.677Z,94173.00
2023-04-07T18:51:28.473Z,94158.00
2023-04-07T18:53:57.731Z,94171.00
2023-04-07T18:56:27.393Z,94169.00
2023-04-07T18:58:57.763Z,94182.00
2023-04-07T19:01:24.822Z,94171.00
2023-04-07T19:03:54.275Z,94178.00
2023-04-07T19:06:24.121Z,94183.00
2023-04-07T19:08:51.410Z,94182.00
2023-04-07T19:11:18.374Z,94185.00
2023-04-07T19:13:49.430Z,94187.00
2023-04-07T19:16:16.744Z,94182.00
2023-04-07T19:18:43.781Z,94196.00
2023-04-07T19:21:12.643Z,94193.00
2023-04-07T19:23:42.485Z,94200.00
2023-04-07T19:26:15.230Z,94201.00
2023-04-07T19:28:44.257Z,94195.00
2023-04-07T19:31:13.363Z,94193.00
2023-04-07T19:33:43.063Z,94203.00
2023-04-07T19:36:10.389Z,94213.00
2023-04-07T19:38:37.294Z,94219.00
2023-04-07T19:41:04.209Z,94213.00
2023-04-07T19:43:31.685Z,94215.00
2023-04-07T19:45:58.724Z,94213.00
2023-04-07T19:48:28.171Z,94218.00
2023-04-07T19:50:55.080Z,94210.00
2023-04-07T19:53:23.704Z,94213.00
2023-04-07T19:55:50.696Z,94227.00
2023-04-07T19:58:18.927Z,94224.00
2023-04-07T20:00:49.528Z,94225.00
2023-04-07T20:03:16.808Z,94224.00
2023-04-07T20:05:43.824Z,94222.00
2023-04-07T20:08:11.138Z,94226.00
2023-04-07T20:10:38.003Z,94226.00
2023-04-07T20:13:06.381Z,94217.00
2023-04-07T20:15:36.108Z,94224.00
2023-04-07T20:18:03.637Z,94214.00
2023-04-07T20:20:36.844Z,94227.00
2023-04-07T20:23:06.104Z,94220.00
2023-04-07T20:25:34.836Z,94224.00
2023-04-07T20:28:04.752Z,94231.00
2023-04-07T20:30:33.868Z,94222.00
2023-04-07T20:33:03.421Z,94226.00
2023-04-07T20:35:30.490Z,94232.00
2023-04-07T20:37:57.502Z,94218.00
2023-04-07T20:40:27.632Z,94237.00
2023-04-07T20:42:57.607Z,94232.00
2023-04-07T20:45:27.590Z,94239.00
2023-04-07T20:47:56.936Z,94239.00
2023-04-07T20:50:24.363Z,94240.00
2023-04-07T20:52:51.442Z,94239.00
2023-04-07T20:55:18.500Z,94236.00
2023-04-07T20:57:48.371Z,94243.00
2023-04-07T21:00:17.203Z,94230.00
2023-04-07T21:02:45.564Z,94238.00
2023-04-07T21:05:12.605Z,94249.00
2023-04-07T21:07:39.503Z,94243.00
2023-04-07T21:10:07.552Z,94248.00
2023-04-07T21:12:34.472Z,94252.00
2023-04-07T21:15:02.410Z,94250.00
2023-04-07T21:17:32.372Z,94245.00
2023-04-07T21:20:02.035Z,94238.00
2023-04-07T21:22:29.600Z,94248.00
2023-04-07T21:24:57.433Z,94253.00
2023-04-07T21:27:24.481Z,94252.00
2023-04-07T21:29:53.608Z,94246.00
2023-04-07T21:32:22.843Z,94243.00
2023-04-07T21:34:53.028Z,94242.00
2023-04-07T21:37:22.924Z,94244.00
2023-04-07T21:39:55.637Z,94252.00
2023-04-07T21:42:22.650Z,94247.00
2023-04-07T21:44:51.801Z,94243.00
2023-04-07T21:47:21.108Z,94250.00
2023-04-07T21:49:48.065Z,94240.00
2023-04-07T21:52:17.371Z,94246.00
2023-04-07T21:54:44.833Z,94243.00
2023-04-07T21:57:12.947Z,94248.00
2023-04-07T21:59:42.222Z,94244.00
2023-04-07T22:02:10.089Z,94238.00
2023-04-07T22:04:39.284Z,94245.00
2023-04-07T22:07:06.215Z,94240.00
2023-04-07T22:09:35.359Z,94243.00
2023-04-07T22:12:05.221Z,94247.00
2023-04-07T22:14:32.091Z,94240.00
2023-04-07T22:16:59.014Z,94240.00
2023-04-07T22:19:25.943Z,94238.00
2023-04-07T22:21:52.825Z,94240.00
2023-04-07T22:24:21.991Z,94238.00
2023-04-07T22:26:48.873Z,94246.00
2023-04-07T22:29:15.752Z,94238.00
2023-04-07T22:31:42.807Z,94240.00
2023-04-07T22:34:09.945Z,94242.00
2023-04-07T22:36:37.118Z,94240.00
2023-04-07T22:39:04.108Z,94242.00
2023-04-07T22:41:31.036Z,94248.00
2023-04-07T22:44:00.497Z,94244.00
2023-04-07T22:46:27.742Z,94246.00
2023-04-07T22:48:54.673Z,94244.00
2023-04-07T22:51:22.038Z,94246.00
2023-04-07T22:53:54.520Z,94251.00
2023-04-07T22:56:24.333Z,94248.00
2023-04-07T22:58:51.714Z,94246.00
2023-04-07T23:01:18.936Z,94252.00
2023-04-07T23:03:48.394Z,94253.00
2023-04-07T23:06:17.410Z,94262.00
2023-04-07T23:08:47.696Z,94262.00
2023-04-07T23:11:16.074Z,94257.00
2023-04-07T23:13:43.359Z,94263.00
2023-04-07T23:16:16.365Z,94253.00
2023-04-07T23:18:46.021Z,94259.00
2023-04-07T23:21:16.462Z,94242.00
2023-04-07T23:23:43.438Z,94247.00
2023-04-07T23:26:10.284Z,94255.00
2023-04-07T23:28:37.145Z,94256.00
2023-04-07T23:31:06.556Z,94260.00
2023-04-07T23:33:36.105Z,94256.00
2023-04-07T23:36:03.250Z,94259.00
2023-04-07T23:38:30.147Z,94234.00
2023-04-07T23:40:57.484Z,94257.00
2023-04-07T23:43:29.079Z,94258.00
2023-04-07T23:45:58.374Z,94221.00
2023-04-07T23:48:26.278Z,94261.00
2023-04-07T23:50:53.650Z,94256.00
2023-04-07T23:53:20.655Z,94255.00
2023-04-07T23:55:50.564Z,94253.00
2023-04-07T23:58:17.573Z,94258.00
